createdAt,value
2023-04-03T08:53:00.217Z,2.38
2023-04-03T08:55:31.214Z,2.00
2023-04-03T08:58:03.562Z,1.73
2023-04-03T09:00:47.613Z,1.77
2023-04-03T09:03:18.100Z,1.70
2023-04-03T09:05:53.166Z,1.73
2023-04-03T09:08:29.228Z,2.08
2023-04-03T09:11:08.815Z,1.95
2023-04-03T09:13:45.675Z,1.80
2023-04-03T09:16:29.104Z,2.00
2023-04-03T09:21:36.292Z,1.77
2023-04-03T09:24:08.973Z,1.83
2023-04-03T09:26:44.622Z,2.25
2023-04-03T09:29:18.258Z,1.80
2023-04-03T09:31:47.665Z,1.70
2023-04-03T09:34:23.490Z,2.08
2023-04-03T09:36:53.579Z,1.92
2023-04-03T09:39:25.174Z,1.73
2023-04-03T09:42:02.448Z,1.50
2023-04-03T09:44:32.784Z,2.00
2023-04-03T09:47:01.427Z,1.58
2023-04-03T09:49:29.780Z,1.52
2023-04-03T09:51:57.845Z,1.38
2023-04-03T09:54:39.542Z,1.55
2023-04-03T09:57:12.682Z,2.00
2023-04-03T10:02:40.685Z,1.63
2023-04-03T10:05:33.133Z,1.30
2023-04-03T10:08:13.257Z,2.10
2023-04-03T10:10:43.305Z,1.58
2023-04-03T10:13:21.164Z,1.35
2023-04-03T10:15:54.966Z,1.58
2023-04-03T10:21:02.446Z,1.55
2023-04-03T10:23:42.379Z,1.58
2023-04-03T10:26:19.477Z,1.63
2023-04-03T10:28:55.569Z,1.58
2023-04-03T10:31:31.758Z,1.80
2023-04-03T10:34:08.049Z,1.30
2023-04-03T10:36:41.594Z,1.77
2023-04-03T10:39:22.681Z,1.35
2023-04-03T10:42:15.697Z,1.55
2023-04-03T10:44:54.696Z,1.05
2023-04-03T10:47:27.605Z,1.15
2023-04-03T10:50:03.907Z,0.95
2023-04-03T10:52:41.169Z,1.10
2023-04-03T10:55:25.144Z,1.08
2023-04-03T10:57:58.123Z,1.08
2023-04-03T11:00:32.836Z,1.38
2023-04-03T11:03:05.332Z,1.63
2023-04-03T11:05:39.139Z,0.90
2023-04-03T11:08:13.114Z,1.13
2023-04-03T11:10:44.461Z,0.80
2023-04-03T11:13:18.071Z,0.98
2023-04-03T11:15:47.513Z,0.90
2023-04-03T11:18:19.551Z,1.00
2023-04-03T11:20:55.740Z,1.00
2023-04-03T11:23:32.745Z,0.75
2023-04-03T11:26:13.652Z,0.90
2023-04-03T11:28:43.666Z,0.98
2023-04-03T11:31:29.754Z,0.98
2023-04-03T11:34:07.361Z,0.80
2023-04-03T11:36:41.680Z,1.23
2023-04-03T11:39:19.322Z,0.80
2023-04-03T11:41:47.469Z,0.80
2023-04-03T11:44:34.459Z,0.80
2023-04-03T11:47:03.644Z,0.90
2023-04-03T11:49:59.125Z,0.80
2023-04-03T11:52:58.617Z,0.80
2023-04-03T11:55:58.427Z,0.90
2023-04-03T11:58:28.538Z,0.93
2023-04-03T12:01:04.641Z,1.60
2023-04-03T12:04:09.088Z,1.10
2023-04-03T12:07:20.963Z,0.80
2023-04-03T12:10:30.797Z,0.68
2023-04-03T12:13:05.303Z,0.90
2023-04-03T12:18:45.165Z,0.80
2023-04-03T12:21:14.895Z,0.85
2023-04-03T12:24:04.812Z,0.90
2023-04-03T12:26:45.901Z,0.60
2023-04-03T12:31:56.272Z,0.95
2023-04-03T12:34:55.108Z,0.80
2023-04-03T12:37:39.201Z,0.82
2023-04-03T12:40:17.713Z,0.90
2023-04-03T12:43:09.135Z,1.02
2023-04-03T12:45:45.437Z,0.80
2023-04-03T12:48:18.576Z,0.75
2023-04-03T12:50:50.923Z,0.90
2023-04-03T12:53:21.636Z,0.80
2023-04-03T12:55:49.714Z,0.82
2023-04-03T12:58:24.662Z,0.77
2023-04-03T13:01:03.494Z,0.80
2023-04-03T13:03:32.267Z,0.70
2023-04-03T13:06:04.357Z,0.88
2023-04-03T13:08:33.250Z,0.80
2023-04-03T13:11:06.029Z,0.70
2023-04-03T13:13:34.269Z,0.70
2023-04-03T13:16:10.272Z,0.90
2023-04-03T13:18:40.122Z,0.77
2023-04-03T13:21:17.999Z,0.63
2023-04-03T13:23:53.246Z,0.77
2023-04-03T13:26:32.261Z,0.90
2023-04-03T13:29:03.793Z,0.88
2023-04-03T13:31:34.301Z,0.68
2023-04-03T13:34:07.744Z,0.70
2023-04-03T13:36:39.538Z,0.90
2023-04-03T13:39:19.987Z,0.80
2023-04-03T13:41:49.713Z,0.70
2023-04-03T13:44:25.436Z,0.77
2023-04-03T13:46:55.110Z,0.70
2023-04-03T13:49:29.791Z,0.63
2023-04-03T13:52:07.211Z,0.70
2023-04-03T13:54:39.147Z,0.70
2023-04-03T13:57:15.221Z,0.80
2023-04-03T13:59:44.113Z,0.80
2023-04-03T14:02:18.810Z,0.80
2023-04-03T14:04:50.879Z,0.55
2023-04-03T14:07:21.135Z,0.70
2023-04-03T14:09:49.467Z,0.90
2023-04-03T14:12:30.230Z,0.60
2023-04-03T14:14:59.773Z,0.77
2023-04-03T14:17:29.466Z,1.08
2023-04-03T14:19:59.405Z,0.80
2023-04-03T14:22:32.435Z,0.82
2023-04-03T14:25:01.091Z,0.70
2023-04-03T14:27:32.639Z,0.70
2023-04-03T14:30:01.439Z,0.82
2023-04-03T14:32:29.634Z,0.85
2023-04-03T14:34:59.247Z,0.60
2023-04-03T14:37:31.835Z,0.90
2023-04-03T14:40:02.379Z,0.95
2023-04-03T14:42:32.756Z,0.90
2023-04-03T14:45:01.974Z,1.08
2023-04-03T14:47:32.652Z,0.80
2023-04-03T14:50:02.252Z,1.00
2023-04-03T14:52:35.014Z,0.70
2023-04-03T14:55:05.011Z,1.17
2023-04-03T14:57:33.625Z,0.90
2023-04-03T15:00:02.674Z,0.90
2023-04-03T15:02:32.588Z,0.90
2023-04-03T15:05:05.135Z,1.10
2023-04-03T15:07:36.609Z,0.98
2023-04-03T15:10:15.903Z,1.15
2023-04-03T15:12:44.523Z,0.90
2023-04-03T15:15:12.751Z,0.70
2023-04-03T15:17:41.258Z,0.80
2023-04-03T15:20:15.187Z,0.95
2023-04-03T15:22:45.320Z,0.90
2023-04-03T15:25:13.711Z,1.00
2023-04-03T15:27:42.342Z,0.68
2023-04-03T15:30:15.323Z,0.75
2023-04-03T15:32:43.439Z,0.93
2023-04-03T15:35:11.951Z,0.93
2023-04-03T15:37:40.008Z,1.13
2023-04-03T15:40:10.829Z,0.88
2023-04-03T15:42:39.365Z,1.05
2023-04-03T15:45:09.132Z,0.93
2023-04-03T15:47:37.431Z,0.80
2023-04-03T15:50:07.704Z,1.25
2023-04-03T15:52:35.876Z,1.10
2023-04-03T15:55:04.186Z,0.90
2023-04-03T16:00:01.789Z,1.02
2023-04-03T16:02:30.078Z,1.13
2023-04-03T16:04:58.210Z,1.30
2023-04-03T16:07:26.298Z,0.80
2023-04-03T16:09:54.636Z,0.90
2023-04-03T16:12:22.700Z,1.00
2023-04-03T16:14:52.619Z,1.10
2023-04-03T16:17:20.987Z,1.25
2023-04-03T16:19:49.088Z,1.33
2023-04-03T16:22:17.371Z,1.00
2023-04-03T16:24:45.460Z,1.15
2023-04-03T16:27:13.937Z,1.27
2023-04-03T16:29:42.011Z,1.20
2023-04-03T16:32:11.684Z,1.15
2023-04-03T16:34:41.612Z,0.90
2023-04-03T16:37:10.507Z,0.90
2023-04-03T16:39:38.668Z,1.08
2023-04-03T16:42:06.783Z,1.38
2023-04-03T16:44:34.943Z,1.30
2023-04-03T16:47:03.326Z,1.23
2023-04-03T16:49:34.937Z,1.00
2023-04-03T16:52:04.456Z,1.25
2023-04-03T16:54:33.868Z,0.93
2023-04-03T16:57:01.977Z,1.10
2023-04-03T16:59:30.462Z,1.10
2023-04-03T17:01:58.568Z,1.25
2023-04-03T17:04:27.218Z,1.40
2023-04-03T17:06:56.943Z,1.27
2023-04-03T17:09:25.471Z,1.40
2023-04-03T17:11:54.354Z,1.30
2023-04-03T17:14:22.464Z,1.48
2023-04-03T17:16:50.699Z,1.33
2023-04-03T17:19:18.970Z,1.08
2023-04-03T17:21:47.519Z,1.05
2023-04-03T17:24:17.294Z,1.50
2023-04-03T17:26:45.545Z,1.50
2023-04-03T17:29:13.649Z,1.15
2023-04-03T17:31:41.778Z,1.00
2023-04-03T17:34:12.079Z,1.02
2023-04-03T17:36:42.199Z,1.38
2023-04-03T17:39:10.726Z,1.30
2023-04-03T17:41:40.243Z,1.30
2023-04-03T17:44:08.478Z,1.35
2023-04-03T17:46:36.591Z,1.08
2023-04-03T17:49:05.282Z,1.40
2023-04-03T17:51:34.416Z,1.20
2023-04-03T17:54:02.663Z,1.25
2023-04-03T17:56:30.843Z,1.15
2023-04-03T17:59:00.354Z,1.30
2023-04-03T18:01:30.155Z,0.88
2023-04-03T18:04:00.254Z,1.10
2023-04-03T18:06:31.260Z,0.88
2023-04-03T18:09:05.251Z,1.02
2023-04-03T18:11:33.663Z,1.10
2023-04-03T18:14:04.814Z,1.42
2023-04-03T18:16:33.046Z,1.10
2023-04-03T18:21:32.452Z,1.00
2023-04-03T18:24:02.270Z,1.23
2023-04-03T18:26:31.315Z,1.10
2023-04-03T18:29:04.802Z,1.20
2023-04-03T18:31:34.937Z,1.00
2023-04-03T18:34:03.041Z,1.50
2023-04-03T18:36:31.135Z,1.38
2023-04-03T18:38:59.247Z,1.20
2023-04-03T18:41:32.300Z,1.13
2023-04-03T18:44:02.195Z,1.20
2023-04-03T18:46:33.152Z,1.52
2023-04-03T18:49:01.412Z,1.60
2023-04-03T18:51:29.785Z,1.45
2023-04-03T18:53:57.840Z,1.10
2023-04-03T18:56:26.357Z,1.20
2023-04-03T18:58:54.467Z,2.30
2023-04-03T19:01:22.682Z,1.27
2023-04-03T19:03:52.210Z,1.45
2023-04-03T19:06:20.497Z,2.03
2023-04-03T19:08:49.523Z,1.48
2023-04-03T19:11:17.599Z,1.10
2023-04-03T19:14:04.266Z,1.60
2023-04-03T19:16:35.412Z,1.42
2023-04-03T19:19:04.898Z,1.20
2023-04-03T19:21:33.038Z,1.52
2023-04-03T19:24:01.116Z,1.65
2023-04-03T19:26:29.215Z,1.20
2023-04-03T19:28:57.261Z,1.50
2023-04-03T19:31:25.372Z,1.48
2023-04-03T19:33:53.458Z,1.50
2023-04-03T19:36:22.867Z,1.45
2023-04-03T19:38:51.029Z,1.20
2023-04-03T19:41:22.589Z,1.50
2023-04-03T19:43:52.974Z,1.67
2023-04-03T19:46:23.751Z,1.50
2023-04-03T19:48:52.220Z,1.60
2023-04-03T19:51:20.597Z,1.52
2023-04-03T19:53:50.058Z,1.20
2023-04-03T19:56:18.186Z,1.20
2023-04-03T19:58:53.399Z,1.42
2023-04-03T20:01:22.672Z,1.35
2023-04-03T20:03:50.998Z,1.45
2023-04-03T20:06:19.083Z,1.42
2023-04-03T20:08:47.186Z,1.40
2023-04-03T20:11:16.834Z,1.67
2023-04-03T20:13:46.776Z,1.17
2023-04-03T20:16:14.879Z,1.40
2023-04-03T20:18:43.245Z,1.38
2023-04-03T20:21:12.159Z,1.30
2023-04-03T20:23:40.406Z,1.75
2023-04-03T20:26:11.701Z,1.60
2023-04-03T20:28:45.398Z,1.35
2023-04-03T20:31:13.669Z,1.52
2023-04-03T20:33:41.831Z,1.67
2023-04-03T20:36:10.606Z,1.80
2023-04-03T20:38:38.677Z,1.85
2023-04-03T20:41:06.751Z,1.58
2023-04-03T20:43:35.301Z,1.73
2023-04-03T20:46:04.990Z,1.80
2023-04-03T20:48:33.324Z,1.40
2023-04-03T20:51:10.317Z,1.50
2023-04-03T20:53:38.653Z,1.60
2023-04-03T20:56:09.072Z,1.70
2023-04-03T20:58:39.525Z,1.33
2023-04-03T21:01:17.210Z,1.50
2023-04-03T21:03:46.371Z,1.70
2023-04-03T21:06:52.097Z,1.40
2023-04-03T21:09:58.109Z,1.70
2023-04-03T21:13:04.072Z,1.15
2023-04-03T21:15:55.192Z,1.42
2023-04-03T21:18:53.341Z,1.30
2023-04-03T21:21:24.377Z,1.48
2023-04-03T21:23:54.065Z,1.63
2023-04-03T21:26:23.386Z,1.70
2023-04-03T21:28:52.807Z,1.40
2023-04-03T21:31:22.656Z,1.70
2023-04-03T21:33:53.893Z,1.77
2023-04-03T21:36:21.988Z,1.55
2023-04-03T21:38:51.064Z,1.40
2023-04-03T21:41:19.128Z,1.30
2023-04-03T21:43:48.045Z,1.27
2023-04-03T21:46:16.257Z,1.48
2023-04-03T21:48:47.025Z,2.17
2023-04-03T21:51:17.250Z,1.67
2023-04-03T21:53:46.578Z,1.58
2023-04-03T21:56:14.642Z,1.50
2023-04-03T21:58:42.766Z,2.08
2023-04-03T22:01:11.824Z,1.70
2023-04-03T22:03:41.395Z,1.58
2023-04-03T22:06:10.206Z,1.73
2023-04-03T22:08:39.848Z,1.92
2023-04-03T22:11:09.849Z,1.40
2023-04-03T22:13:38.474Z,1.58
2023-04-03T22:16:07.335Z,1.80
2023-04-03T22:18:36.392Z,1.83
2023-04-03T22:21:04.903Z,1.80
2023-04-03T22:23:32.982Z,1.45
2023-04-03T22:26:04.737Z,4.32
2023-04-03T22:28:34.562Z,3.97
2023-04-03T22:31:03.879Z,2.97
2023-04-03T22:33:32.078Z,3.05
2023-04-03T22:36:00.250Z,2.60
2023-04-03T22:38:28.409Z,1.77
2023-04-03T22:41:00.272Z,1.83
2023-04-03T22:43:31.978Z,1.67
2023-04-03T22:46:01.803Z,1.90
2023-04-03T22:48:30.807Z,1.90
2023-04-03T22:50:59.112Z,1.35
2023-04-03T22:53:27.183Z,1.75
2023-04-03T22:55:56.500Z,1.42
2023-04-03T22:58:26.437Z,1.60
2023-04-03T23:00:57.717Z,1.85
2023-04-03T23:03:26.005Z,1.63
2023-04-03T23:05:56.138Z,1.60
2023-04-03T23:08:24.404Z,1.52
2023-04-03T23:10:56.507Z,1.65
2023-04-03T23:13:25.158Z,1.40
2023-04-03T23:15:58.552Z,1.60
2023-04-03T23:18:29.530Z,1.35
2023-04-03T23:20:59.564Z,1.80
2023-04-03T23:23:27.778Z,2.45
2023-04-03T23:25:56.945Z,2.60
2023-04-03T23:28:25.504Z,2.20
2023-04-03T23:31:01.635Z,1.83
2023-04-03T23:33:30.526Z,1.63
2023-04-03T23:35:59.559Z,2.13
2023-04-03T23:38:27.863Z,1.65
2023-04-03T23:40:56.069Z,1.60
2023-04-03T23:43:24.145Z,1.85
2023-04-03T23:45:52.703Z,1.92
2023-04-03T23:48:22.246Z,1.73
2023-04-03T23:50:50.338Z,1.50
2023-04-03T23:53:18.497Z,1.48
2023-04-03T23:55:46.651Z,2.13
2023-04-03T23:58:14.728Z,2.28
